KSPA

Spartanburg Downtown Memorial Airport

Spartanburg, South Carolina, USA
METAR KSPA 190635Z AUTO 00000KT 10SM CLR M01/M08 A3022 RMK AO2
Observed Flight Rules
Jan-19 @ 06:35 UTC (29 minutes ago) Visual Flight Rules
Wind Visibility Clouds
Calm 10 miles
  • Clear skies
Temperatures Readings
Current -1°C / 30°F
Dewpoint -8°C / 18°F
Humidity 59%
Altimeter 30.22" Hg
Pressure 1023 hPa
Elevation 303
METAR KSPA 190635Z AUTO 00000KT 10SM CLR M01/M08 A3022 RMK AO2
Observed Flight Rules
Jan-19 @ 06:35 UTC
(29 minutes ago)
VFR
Wind Visibility
Calm 10 miles
Clouds
  • Clear skies
Temperature Dewpoint
-1°C / 30°F -8°C / 18°F
Humidity Altimeter Pressure
59% 30.22" Hg 1023 hPa